Lena, Indiana
Current Conditions -  °F | °C
As of 12:53 PM on Thursday 18 Dec 2014 (Local Time) from KHUF Reporting Station
Overcast Overcast  
Wind Chill: 29°   Ceiling: 2000
Heat Index: 29°   Visibility: 10mi
Dew Point: 21°   Wind: 3mph
Humidity: 72%   Direction: 360°N
Pressure: 30.28"   Gusts: NA
Location:  39.5158°N, 87.1262°W
Report Text: KHUF 181753Z 36003KT 10SM BKN020 OVC095 M02/M06 A3028 RMK AO2 SLP261 T10171061 11017 21039 56014
Loading
Personal Weather Stations






























Interactive Weather Map New forecast layout! Learn more

10-Day Weather Forecast

Advertisements
Track Severe Weather on mobile